Time;durP1;ratioP1;P1;durP2;ratioP2;P2;SDS_P1;SDS_P2;PMS_P1;PMS_P2;Temp;Humidity;BMP_temperature;BMP_pressure;BME280_temperature;BME280_humidity;BME280_pressure;Samples;Min_cycle;Max_cycle;Signal;HPM_P1;HPM_P2
2022/10/07 00:00:17;;;;;;;8.65;4.03;;;;;;;10.48;71.44;102677.16;6123311;23;20456;-87
2022/10/07 00:02:43;;;;;;;10.63;3.85;;;;;;;10.52;71.16;102670.09;6121909;23;20097;-88
2022/10/07 00:05:08;;;;;;;7.15;3.97;;;;;;;10.56;70.68;102679.75;6124686;23;20005;-89
2022/10/07 00:07:34;;;;;;;9.05;4.15;;;;;;;10.57;70.90;102662.97;6122844;23;20013;-88
2022/10/07 00:09:59;;;;;;;10.82;3.58;;;;;;;10.64;70.97;102668.19;6124648;23;20088;-88
2022/10/07 00:12:25;;;;;;;11.63;4.13;;;;;;;10.50;70.75;102656.03;6123825;23;19998;-88
2022/10/07 00:14:50;;;;;;;14.43;3.85;;;;;;;10.41;71.71;102662.28;6124421;23;20002;-88
2022/10/07 00:17:15;;;;;;;10.20;3.90;;;;;;;10.34;72.42;102664.09;6123958;23;20005;-88
2022/10/07 00:19:41;;;;;;;12.15;3.85;;;;;;;10.27;72.29;102654.47;6122934;23;20060;-88
2022/10/07 00:22:07;;;;;;;7.82;4.03;;;;;;;10.21;72.94;102665.97;6124134;23;20350;-89
2022/10/07 00:24:32;;;;;;;11.40;3.80;;;;;;;10.01;73.37;102643.22;6124481;23;20013;-88
2022/10/07 00:26:57;;;;;;;7.50;3.60;;;;;;;10.00;73.29;102650.28;6122774;23;20006;-88
2022/10/07 00:29:22;;;;;;;13.05;4.00;;;;;;;9.95;72.87;102638.88;6124435;23;20002;-88
2022/10/07 00:31:48;;;;;;;11.50;3.97;;;;;;;9.98;72.79;102636.22;6123628;23;20040;-88
2022/10/07 00:34:13;;;;;;;7.32;3.55;;;;;;;10.05;73.17;102635.25;6122888;23;20312;-88
2022/10/07 00:36:38;;;;;;;9.05;4.18;;;;;;;10.12;72.06;102639.63;6122882;23;20041;-88
2022/10/07 00:39:10;;;;;;;12.10;4.50;;;;;;;10.06;73.08;102642.28;6124193;23;20006;-88
2022/10/07 00:41:50;;;;;;;11.85;4.45;;;;;;;10.02;73.94;102634.41;6123886;23;20002;-87
2022/10/07 00:44:30;;;;;;;14.88;5.30;;;;;;;10.03;71.45;102629.13;6124145;23;20006;-88
2022/10/07 00:46:57;;;;;;;15.50;5.40;;;;;;;9.93;73.85;102622.16;6122706;23;20068;-88
2022/10/07 00:49:22;;;;;;;17.60;5.45;;;;;;;9.90;74.17;102620.44;6122392;23;20006;-88
2022/10/07 00:51:50;;;;;;;12.15;4.30;;;;;;;9.92;74.07;102629.22;6123803;23;20076;-88
2022/10/07 00:54:17;;;;;;;12.95;4.80;;;;;;;9.75;74.14;102610.00;6123993;23;20017;-88
2022/10/07 00:56:45;;;;;;;10.18;4.22;;;;;;;9.80;73.36;102618.75;6122684;23;20037;-88
2022/10/07 00:59:13;;;;;;;9.63;4.30;;;;;;;9.81;73.41;102609.94;6124295;23;20010;-87
2022/10/07 01:01:40;;;;;;;10.82;4.65;;;;;;;9.88;74.63;102622.19;6121776;23;20443;-88
2022/10/07 01:04:08;;;;;;;10.75;3.90;;;;;;;9.88;74.18;102610.75;6122085;23;20026;-88
2022/10/07 01:06:34;;;;;;;8.65;3.92;;;;;;;9.92;74.38;102616.00;6124580;23;20029;-88
2022/10/07 01:09:00;;;;;;;6.70;3.42;;;;;;;9.86;74.55;102594.06;6124031;23;20002;-88
2022/10/07 01:11:41;;;;;;;12.57;4.00;;;;;;;9.96;73.27;102608.94;6123483;23;20025;-88
2022/10/07 01:14:14;;;;;;;9.20;3.65;;;;;;;9.92;74.18;102601.91;6146731;23;20503;-87
2022/10/07 01:16:55;;;;;;;9.32;3.63;;;;;;;9.93;73.59;102603.66;6123785;23;20056;-88
2022/10/07 01:19:51;;;;;;;9.52;3.80;;;;;;;9.97;73.40;102605.38;6122327;23;20009;-88
2022/10/07 01:22:43;;;;;;;12.10;3.75;;;;;;;9.94;73.76;102598.38;6123118;23;20084;-88
2022/10/07 01:25:46;;;;;;;15.18;4.00;;;;;;;9.96;73.48;102598.34;6069231;23;20010;-88
2022/10/07 01:28:22;;;;;;;8.60;3.38;;;;;;;9.89;74.10;102588.75;6123523;23;20004;-88
2022/10/07 01:30:53;;;;;;;15.75;4.20;;;;;;;9.88;74.95;102594.91;6123571;23;20009;-87
2022/10/07 01:33:26;;;;;;;11.73;4.00;;;;;;;9.85;73.78;102590.53;6123358;23;20009;-88
2022/10/07 01:35:54;;;;;;;13.25;4.80;;;;;;;9.76;74.42;102571.25;6123880;23;20006;-88
2022/10/07 01:38:25;;;;;;;9.27;3.65;;;;;;;9.83;74.03;102580.88;6122098;23;20002;-87
2022/10/07 01:41:14;;;;;;;11.52;4.07;;;;;;;9.83;73.45;102565.00;6122232;23;20351;-87
2022/10/07 01:43:41;;;;;;;7.53;3.55;;;;;;;9.73;74.89;102556.31;6121647;23;20381;-88
2022/10/07 01:46:12;;;;;;;12.73;3.95;;;;;;;9.76;74.99;102558.94;6122256;23;20010;-87
2022/10/07 01:48:38;;;;;;;9.63;4.20;;;;;;;9.67;75.27;102546.69;6121866;23;20034;-88
2022/10/07 01:51:06;;;;;;;10.88;4.05;;;;;;;9.68;75.10;102544.91;6123344;23;20057;-88
2022/10/07 01:54:01;;;;;;;13.13;3.90;;;;;;;9.75;73.61;102548.38;6121975;23;20009;-88
2022/10/07 01:56:48;;;;;;;15.13;4.72;;;;;;;9.72;74.53;102541.34;6121960;23;20317;-87
2022/10/07 01:59:39;;;;;;;13.23;3.63;;;;;;;9.67;74.96;102522.91;6122274;23;20397;-87
2022/10/07 02:02:37;;;;;;;13.60;3.90;;;;;;;9.74;74.93;102530.75;6121024;23;20347;-88
2022/10/07 02:05:22;;;;;;;9.23;4.13;;;;;;;9.59;75.24;102529.16;6122039;23;20343;-88
2022/10/07 02:08:22;;;;;;;16.55;3.60;;;;;;;9.54;74.87;102536.22;6123338;23;20009;-87
2022/10/07 02:11:13;;;;;;;8.68;3.25;;;;;;;9.49;75.76;102527.47;6123067;23;20375;-87
2022/10/07 02:14:16;;;;;;;18.63;3.97;;;;;;;9.50;75.16;102524.81;6123051;23;20350;-88
2022/10/07 02:16:55;;;;;;;15.18;3.80;;;;;;;9.41;74.72;102503.78;6121620;23;20006;-88
2022/10/07 02:19:27;;;;;;;11.95;3.97;;;;;;;9.42;75.66;102519.63;6123405;23;20060;-88
2022/10/07 02:21:55;;;;;;;7.73;3.97;;;;;;;9.47;75.76;102526.63;6122892;23;20521;-88
2022/10/07 02:24:24;;;;;;;18.08;4.50;;;;;;;9.40;75.65;102512.59;6123013;23;20013;-87
2022/10/07 02:26:53;;;;;;;6.90;3.40;;;;;;;9.41;75.12;102512.56;6123264;23;20012;-88
2022/10/07 02:29:20;;;;;;;13.93;3.88;;;;;;;9.40;75.84;102509.94;6121757;23;20145;-88
2022/10/07 02:31:47;;;;;;;10.77;4.32;;;;;;;9.35;75.59;102501.19;6122506;23;20327;-88
2022/10/07 02:34:17;;;;;;;15.10;4.40;;;;;;;9.30;75.62;102492.44;6121509;23;20010;-88
2022/10/07 02:36:49;;;;;;;9.88;3.50;;;;;;;9.31;75.33;102489.78;6121563;23;20013;-88
2022/10/07 02:39:14;;;;;;;12.48;3.47;;;;;;;9.30;75.93;102477.47;6122961;23;20426;-87
2022/10/07 02:41:48;;;;;;;15.38;3.80;;;;;;;9.31;75.98;102496.81;6120999;23;20032;-88
2022/10/07 02:44:35;;;;;;;7.28;3.42;;;;;;;9.32;75.21;102496.81;6123155;23;20080;-88
2022/10/07 02:47:08;;;;;;;9.75;4.25;;;;;;;9.25;76.19;102495.13;6123227;23;20710;-88
2022/10/07 02:49:37;;;;;;;10.63;3.88;;;;;;;9.25;75.68;102486.34;6121448;23;20053;-88
2022/10/07 02:52:08;;;;;;;11.93;3.72;;;;;;;9.19;76.30;102480.22;6122875;23;20002;-88
2022/10/07 02:54:41;;;;;;;13.93;3.45;;;;;;;9.15;75.89;102472.34;6122755;23;20009;-88
2022/10/07 02:57:08;;;;;;;16.05;4.47;;;;;;;9.13;76.20;102482.88;6123327;23;20449;-88
2022/10/07 02:59:36;;;;;;;9.98;3.67;;;;;;;9.01;76.83;102488.28;6122871;23;20505;-88
2022/10/07 03:02:04;;;;;;;9.60;3.65;;;;;;;9.02;76.68;102481.22;6122500;23;20017;-88
2022/10/07 03:04:29;;;;;;;10.75;3.42;;;;;;;9.02;77.12;102473.31;6122928;23;20061;-88
2022/10/07 03:06:57;;;;;;;16.35;4.38;;;;;;;8.95;77.19;102467.19;6121492;23;20243;-87
2022/10/07 03:09:24;;;;;;;12.15;4.03;;;;;;;8.99;77.22;102466.28;6123127;23;20498;-87
2022/10/07 03:11:49;;;;;;;15.73;4.50;;;;;;;8.89;77.35;102462.84;6120772;23;20064;-88
2022/10/07 03:14:14;;;;;;;7.50;3.30;;;;;;;8.78;77.48;102453.28;6122795;23;20085;-87
2022/10/07 03:16:39;;;;;;;11.27;3.90;;;;;;;8.79;77.47;102460.28;6121273;23;20438;-88
2022/10/07 03:19:05;;;;;;;10.68;3.05;;;;;;;8.80;76.63;102456.75;6123161;23;20008;-87
2022/10/07 03:21:32;;;;;;;8.20;3.50;;;;;;;8.74;77.53;102435.72;6120978;23;20598;-87
2022/10/07 03:24:03;;;;;;;9.10;3.67;;;;;;;8.78;77.49;102454.16;6122802;23;20002;-87
2022/10/07 03:26:31;;;;;;;10.05;3.88;;;;;;;8.74;77.98;102444.50;6121521;23;20516;-87
2022/10/07 03:28:58;;;;;;;9.70;4.18;;;;;;;8.75;77.80;102435.69;6121395;23;20006;-88
2022/10/07 03:31:25;;;;;;;12.90;4.05;;;;;;;8.74;77.51;102431.31;6122735;23;20033;-88
2022/10/07 03:33:50;;;;;;;11.18;4.03;;;;;;;8.75;76.97;102422.50;6121101;23;20006;-88
2022/10/07 03:36:16;;;;;;;15.73;3.72;;;;;;;8.89;76.15;102444.38;6123420;23;20056;-88
2022/10/07 03:38:41;;;;;;;6.82;3.00;;;;;;;8.87;76.51;102432.09;6122972;23;20006;-87
2022/10/07 03:41:06;;;;;;;8.25;3.65;;;;;;;8.79;76.15;102418.09;6122426;23;20472;-87
2022/10/07 03:43:32;;;;;;;8.88;3.72;;;;;;;8.88;76.74;102432.09;6121048;23;20020;-87
2022/10/07 03:46:01;;;;;;;11.02;3.70;;;;;;;8.81;76.69;102427.75;6121230;23;20094;-88
2022/10/07 03:48:26;;;;;;;9.27;3.60;;;;;;;8.74;76.88;102431.31;6121384;23;20431;-88
2022/10/07 03:50:53;;;;;;;11.38;3.85;;;;;;;8.71;76.90;102419.91;6121122;23;20002;-87
2022/10/07 03:53:19;;;;;;;11.13;4.20;;;;;;;8.64;75.41;102414.69;6122901;23;20137;-88
2022/10/07 03:55:45;;;;;;;10.95;3.97;;;;;;;8.72;77.02;102438.38;6124618;23;20031;-88
2022/10/07 03:58:14;;;;;;;7.55;3.50;;;;;;;8.72;76.67;102426.94;6124647;23;20052;-88
2022/10/07 04:00:40;;;;;;;11.60;3.92;;;;;;;8.72;77.62;102427.81;6122360;23;20002;-87
2022/10/07 04:03:06;;;;;;;7.30;3.47;;;;;;;8.68;77.74;102419.06;6122513;23;20029;-88
2022/10/07 04:05:33;;;;;;;10.88;3.83;;;;;;;8.65;77.64;102423.47;6124715;23;20013;-87
2022/10/07 04:07:58;;;;;;;11.75;4.85;;;;;;;8.63;77.69;102425.25;6124588;23;20461;-88
2022/10/07 04:10:24;;;;;;;14.13;3.95;;;;;;;8.59;78.07;102424.38;6123029;23;20002;-88
2022/10/07 04:12:51;;;;;;;12.15;4.45;;;;;;;8.48;78.41;102418.28;6124053;23;20002;-87
2022/10/07 04:15:17;;;;;;;12.65;4.00;;;;;;;8.46;77.08;102411.31;6124250;23;20431;-87
2022/10/07 04:17:43;;;;;;;9.35;3.80;;;;;;;8.56;78.60;102427.03;6124431;23;20156;-88
2022/10/07 04:20:11;;;;;;;17.05;4.40;;;;;;;8.57;78.83;102428.78;6124501;23;20002;-87
2022/10/07 04:22:36;;;;;;;8.45;3.80;;;;;;;8.49;78.16;102404.25;6123795;23;20001;-87
2022/10/07 04:27:54;;;;;;;11.35;4.03;;;;;;;8.57;78.24;102418.22;6124305;23;20041;-87
2022/10/07 04:30:21;;;;;;;12.18;3.50;;;;;;;8.56;78.52;102413.84;6124589;23;20446;-87
2022/10/07 04:32:48;;;;;;;9.48;3.60;;;;;;;8.51;78.47;102415.66;6123760;23;19998;-87
2022/10/07 04:35:13;;;;;;;9.75;3.80;;;;;;;8.53;77.92;102407.72;6122797;23;20316;-87
2022/10/07 04:37:40;;;;;;;8.40;3.47;;;;;;;8.51;77.54;102410.38;6124213;23;20157;-87
2022/10/07 04:40:06;;;;;;;13.85;4.38;;;;;;;8.39;78.64;102407.81;6122731;23;20454;-87
2022/10/07 04:45:15;;;;;;;11.70;3.88;;;;;;;8.18;79.00;102407.03;6124354;23;20508;-87
2022/10/07 04:47:40;;;;;;;7.65;3.92;;;;;;;8.13;79.11;102400.03;6122150;23;20037;-88
2022/10/07 04:50:06;;;;;;;8.65;3.47;;;;;;;8.15;78.88;102404.38;6122751;23;20016;-87
2022/10/07 04:52:32;;;;;;;9.63;3.65;;;;;;;8.09;78.43;102396.53;6122179;23;20057;-88
2022/10/07 04:54:57;;;;;;;6.88;3.83;;;;;;;7.98;78.55;102393.09;6122382;23;20014;-88
2022/10/07 04:57:22;;;;;;;9.88;3.47;;;;;;;7.97;78.86;102387.78;6122267;23;20009;-88
2022/10/07 04:59:47;;;;;;;10.02;3.75;;;;;;;8.08;78.89;102394.78;6124016;23;20009;-87
2022/10/07 05:02:13;;;;;;;9.38;3.65;;;;;;;8.13;78.08;102403.53;6123146;23;20046;-88
2022/10/07 05:04:38;;;;;;;10.27;3.92;;;;;;;8.07;78.13;102393.03;6123488;23;20265;-87
2022/10/07 05:07:03;;;;;;;8.80;3.50;;;;;;;8.08;77.42;102394.78;6122174;23;20010;-88
2022/10/07 05:09:29;;;;;;;11.40;3.92;;;;;;;8.04;78.50;102376.38;6124146;23;20076;-87
2022/10/07 05:11:54;;;;;;;11.57;3.55;;;;;;;8.05;77.75;102381.63;6121844;23;20040;-88
2022/10/07 05:14:20;;;;;;;8.60;4.00;;;;;;;8.08;78.86;102392.16;6123581;23;20330;-87
2022/10/07 05:16:47;;;;;;;10.88;4.38;;;;;;;7.97;78.84;102380.78;6122071;23;20016;-87
2022/10/07 05:19:12;;;;;;;11.40;4.20;;;;;;;7.98;78.55;102394.84;6123728;23;20378;-88
2022/10/07 05:21:38;;;;;;;11.75;3.70;;;;;;;7.86;79.55;102383.47;6121773;23;20006;-88
2022/10/07 05:24:03;;;;;;;10.75;4.10;;;;;;;7.81;79.78;102376.47;6122782;23;20002;-87
2022/10/07 05:26:28;;;;;;;12.18;4.30;;;;;;;7.74;79.59;102377.34;6123658;23;20092;-89
2022/10/07 05:28:54;;;;;;;7.97;3.70;;;;;;;7.68;80.25;102375.63;6123969;23;20053;-88
2022/10/07 05:31:19;;;;;;;14.02;4.68;;;;;;;7.72;80.40;102381.78;6121817;23;20005;-88
2022/10/07 05:33:46;;;;;;;12.60;4.25;;;;;;;7.68;80.32;102379.13;6123336;23;20005;-88
2022/10/07 05:36:11;;;;;;;9.18;4.05;;;;;;;7.64;80.45;102363.34;6123803;23;20001;-88
2022/10/07 05:38:37;;;;;;;14.70;4.18;;;;;;;7.60;80.06;102364.25;6122885;23;20343;-88
2022/10/07 05:41:04;;;;;;;12.63;4.15;;;;;;;7.65;80.32;102379.16;6121435;23;20002;-88
2022/10/07 05:43:33;;;;;;;10.98;3.53;;;;;;;7.61;80.44;102358.13;6123079;23;20012;-88
2022/10/07 05:46:00;;;;;;;12.25;3.63;;;;;;;7.68;80.04;102360.72;6121847;23;20014;-88
2022/10/07 05:48:27;;;;;;;12.07;3.85;;;;;;;7.83;79.66;102375.59;6123025;23;20012;-88
2022/10/07 05:50:53;;;;;;;8.38;3.90;;;;;;;7.82;79.37;102363.28;6123381;23;20066;-87
2022/10/07 05:53:19;;;;;;;11.32;3.65;;;;;;;7.82;79.24;102347.50;6123544;23;20010;-87
2022/10/07 05:55:44;;;;;;;9.45;3.72;;;;;;;7.89;79.35;102364.16;6123984;23;20312;-88
2022/10/07 05:58:09;;;;;;;7.28;3.80;;;;;;;7.96;78.98;102371.13;6121920;23;20084;-88
2022/10/07 06:00:40;;;;;;;13.20;4.10;;;;;;;7.98;79.82;102366.75;6121442;23;20395;-88
2022/10/07 06:03:06;;;;;;;10.10;3.55;;;;;;;7.98;79.52;102352.72;6121417;23;20072;-88
2022/10/07 06:05:32;;;;;;;9.27;3.50;;;;;;;8.09;80.07;102359.66;6123709;23;20005;-87
2022/10/07 06:07:57;;;;;;;11.68;3.85;;;;;;;8.09;80.61;102346.47;6123551;23;20354;-88
2022/10/07 06:13:07;;;;;;;7.45;3.30;;;;;;;8.18;78.67;102359.59;6122712;23;20072;-88
2022/10/07 06:15:33;;;;;;;12.20;4.00;;;;;;;8.18;79.08;102354.34;6120924;23;20001;-88
2022/10/07 06:17:58;;;;;;;14.82;4.53;;;;;;;8.16;79.59;102344.69;6122946;23;20002;-88
2022/10/07 06:20:23;;;;;;;12.50;3.47;;;;;;;8.20;80.22;102343.78;6121378;23;20320;-88
2022/10/07 06:22:51;;;;;;;10.93;3.13;;;;;;;8.32;79.85;102354.25;6121017;23;20012;-88
2022/10/07 06:25:17;;;;;;;12.40;3.80;;;;;;;8.34;80.10;102344.56;6122742;23;20002;-88
2022/10/07 06:27:42;;;;;;;9.32;3.15;;;;;;;8.40;80.02;102346.34;6122821;23;20034;-88
2022/10/07 06:30:08;;;;;;;12.30;3.50;;;;;;;8.41;80.16;102338.41;6122958;23;20033;-87
2022/10/07 06:32:33;;;;;;;13.02;3.65;;;;;;;8.45;80.43;102338.41;6120996;23;20002;-88
2022/10/07 06:34:58;;;;;;;13.48;3.42;;;;;;;8.51;80.03;102336.56;6121587;23;20006;-88
2022/10/07 06:37:24;;;;;;;12.35;3.55;;;;;;;8.60;80.23;102344.41;6122953;23;20434;-87
2022/10/07 06:39:49;;;;;;;9.38;3.30;;;;;;;8.67;79.57;102343.50;6121008;23;20140;-87
2022/10/07 06:42:14;;;;;;;11.60;3.60;;;;;;;8.76;79.91;102353.06;6120889;23;20308;-88
2022/10/07 06:44:40;;;;;;;10.25;3.53;;;;;;;8.74;80.86;102335.53;6122461;23;20002;-88
2022/10/07 06:47:05;;;;;;;12.75;3.03;;;;;;;8.74;80.35;102330.25;6122962;23;20517;-87
2022/10/07 06:49:30;;;;;;;10.80;3.17;;;;;;;8.87;80.50;102340.69;6120775;23;20509;-88
2022/10/07 06:51:56;;;;;;;11.00;2.92;;;;;;;8.92;80.27;102338.88;6120451;23;20002;-88
2022/10/07 06:54:21;;;;;;;14.77;3.88;;;;;;;8.96;80.38;102337.09;6122375;23;20001;-87
2022/10/07 06:56:46;;;;;;;10.88;3.35;;;;;;;9.04;80.43;102335.22;6120829;23;19998;-88
2022/10/07 06:59:11;;;;;;;13.40;3.63;;;;;;;9.19;79.86;102348.28;6122401;23;19998;-88
2022/10/07 07:01:37;;;;;;;11.57;3.13;;;;;;;9.29;79.71;102345.53;6121566;23;20041;-88
2022/10/07 07:04:02;;;;;;;14.57;3.35;;;;;;;9.35;79.92;102348.13;6122121;23;20125;-88
2022/10/07 07:06:28;;;;;;;8.50;2.90;;;;;;;9.38;79.86;102338.41;6121349;23;20013;-88
2022/10/07 07:09:03;;;;;;;15.57;3.60;;;;;;;9.50;79.06;102350.56;6120695;23;20338;-88
2022/10/07 07:11:34;;;;;;;10.98;3.08;;;;;;;9.61;78.86;102347.81;6122150;23;20014;-87
2022/10/07 07:14:01;;;;;;;9.40;2.97;;;;;;;9.75;78.90;102366.16;6121041;23;20010;-88
2022/10/07 07:16:27;;;;;;;7.78;2.80;;;;;;;9.75;78.79;102339.75;6122573;23;20080;-87
2022/10/07 07:18:57;;;;;;;12.02;3.03;;;;;;;9.91;78.59;102357.13;6120639;23;20378;-88
2022/10/07 07:21:24;;;;;;;11.60;4.35;;;;;;;9.94;78.57;102343.88;6121625;23;20009;-88
2022/10/07 07:23:50;;;;;;;10.55;2.85;;;;;;;10.09;77.84;102350.72;6120118;23;20057;-87
2022/10/07 07:26:17;;;;;;;17.02;3.47;;;;;;;10.23;77.80;102354.03;6121706;23;20432;-87
2022/10/07 07:28:43;;;;;;;11.77;2.97;;;;;;;10.26;76.93;102347.84;6124025;23;20080;-87
2022/10/07 07:31:11;;;;;;;7.65;2.80;;;;;;;10.38;77.64;102366.19;6121887;23;20005;-87
2022/10/07 07:33:38;;;;;;;11.73;3.30;;;;;;;10.46;77.18;102356.38;6121773;23;20009;-87
2022/10/07 07:36:15;;;;;;;9.88;2.35;;;;;;;10.58;76.21;102350.88;6122959;23;20053;-87
2022/10/07 07:38:52;;;;;;;13.38;2.95;;;;;;;10.74;76.37;102359.47;6124114;23;20005;-87
2022/10/07 07:41:25;;;;;;;8.05;2.85;;;;;;;10.87;75.73;102363.66;6123265;23;20150;-86
2022/10/07 07:43:52;;;;;;;11.95;3.22;;;;;;;11.03;75.15;102351.00;6123811;23;20426;-86
2022/10/07 07:46:19;;;;;;;12.55;3.10;;;;;;;11.22;74.64;102331.22;6122516;23;20064;-86
2022/10/07 07:48:45;;;;;;;7.40;2.90;;;;;;;11.62;73.41;102345.50;6123753;23;20063;-86
2022/10/07 07:51:13;;;;;;;10.63;2.92;;;;;;;11.86;73.09;102339.69;6121576;23;20034;-87
2022/10/07 07:53:38;;;;;;;14.65;3.28;;;;;;;12.09;74.13;102343.63;6121927;23;20458;-86
2022/10/07 07:56:04;;;;;;;10.95;2.53;;;;;;;12.18;71.87;102338.13;6124147;23;20069;-86
2022/10/07 07:58:29;;;;;;;18.38;3.15;;;;;;;12.36;70.50;102339.47;6124095;23;20025;-86
2022/10/07 08:01:00;;;;;;;13.10;2.88;;;;;;;12.53;70.90;102347.88;6122617;23;20360;-86
2022/10/07 08:03:26;;;;;;;8.60;2.72;;;;;;;12.71;69.41;102339.47;6123568;23;20065;-86
2022/10/07 08:05:51;;;;;;;9.93;2.72;;;;;;;13.08;69.47;102338.53;6123994;23;20430;-86
2022/10/07 08:08:16;;;;;;;12.20;2.60;;;;;;;13.51;67.37;102337.38;6124294;23;20002;-86
2022/10/07 08:10:42;;;;;;;10.88;2.55;;;;;;;13.94;65.64;102325.47;6123257;23;20303;-86
2022/10/07 08:13:08;;;;;;;14.60;2.97;;;;;;;14.17;64.56;102335.41;6123626;23;20441;-86
2022/10/07 08:15:34;;;;;;;10.20;2.88;;;;;;;14.49;62.88;102329.09;6121745;23;20089;-86
2022/10/07 08:17:59;;;;;;;8.85;2.60;;;;;;;14.90;61.58;102337.50;6123524;23;20002;-86
2022/10/07 08:20:25;;;;;;;14.40;2.55;;;;;;;15.19;61.29;102339.13;6123158;23;20040;-85
2022/10/07 08:22:51;;;;;;;11.85;2.28;;;;;;;15.47;59.94;102339.00;6122416;23;20415;-85
2022/10/07 08:25:16;;;;;;;11.38;2.33;;;;;;;15.80;58.80;102328.91;6121597;23;20065;-85
2022/10/07 08:27:41;;;;;;;8.02;2.22;;;;;;;16.15;57.96;102337.34;6123565;23;20006;-85
2022/10/07 08:30:07;;;;;;;9.15;2.42;;;;;;;16.51;56.07;102333.19;6121492;23;20089;-85
2022/10/07 08:32:33;;;;;;;8.38;2.55;;;;;;;16.46;56.41;102328.97;6121038;23;20006;-86
2022/10/07 08:34:58;;;;;;;12.88;2.53;;;;;;;16.69;55.87;102325.34;6123117;23;20009;-85
2022/10/07 08:37:24;;;;;;;8.35;3.03;;;;;;;17.37;54.45;102324.19;6123012;23;20001;-86
2022/10/07 08:39:49;;;;;;;11.57;2.75;;;;;;;17.88;52.80;102325.44;6123077;23;20006;-86
2022/10/07 08:42:32;;;;;;;12.30;2.40;;;;;;;18.63;52.71;102326.25;6122744;23;20008;-86
2022/10/07 08:44:58;;;;;;;8.48;2.00;;;;;;;18.97;49.58;102312.88;6123081;23;20073;-86
2022/10/07 08:47:44;;;;;;;12.07;2.55;;;;;;;19.07;50.81;102314.16;6122075;23;20460;-86
2022/10/07 08:50:26;;;;;;;10.88;2.20;;;;;;;19.16;50.85;102314.63;6121558;23;20033;-86
2022/10/07 08:53:03;;;;;;;7.45;2.20;;;;;;;20.11;48.72;102316.56;6121366;23;20439;-85
2022/10/07 08:55:55;;;;;;;13.18;2.90;;;;;;;21.08;44.47;102308.22;6123376;23;20017;-86
2022/10/07 08:58:39;;;;;;;6.78;2.08;;;;;;;21.54;42.55;102311.63;6123778;23;20493;-86
2022/10/07 09:01:29;;;;;;;10.82;1.90;;;;;;;21.26;46.22;102295.44;6120613;23;20076;-86
2022/10/07 09:04:42;;;;;;;6.00;2.33;;;;;;;21.11;45.93;102289.19;6122962;23;20089;-86
2022/10/07 09:07:10;;;;;;;;;;;;;;;21.33;46.00;102289.63;6122168;23;19998;-86
2022/10/07 09:10:08;;;;;;;10.95;2.60;;;;;;;20.61;45.97;102290.41;6122942;23;20334;-87
2022/10/07 09:12:50;;;;;;;5.32;2.08;;;;;;;20.36;46.27;102283.75;6091059;23;20012;-87
2022/10/07 09:15:44;;;;;;;12.73;2.00;;;;;;;20.45;46.28;102293.09;6123077;23;20052;-87
2022/10/07 09:18:16;;;;;;;8.35;2.20;;;;;;;21.72;43.11;102290.72;6123297;23;20009;-87
2022/10/07 09:20:48;;;;;;;13.63;2.42;;;;;;;22.85;42.95;102285.94;6122335;23;20010;-87
2022/10/07 09:23:14;;;;;;;5.03;1.90;;;;;;;23.65;38.74;102283.91;6121149;23;20006;-86
2022/10/07 09:25:41;;;;;;;5.25;1.70;;;;;;;23.59;37.15;102280.72;6121422;23;20017;-86
2022/10/07 09:28:15;;;;;;;12.10;3.40;;;;;;;23.58;37.74;102279.00;6123034;23;20480;-87
2022/10/07 09:30:41;;;;;;;6.30;1.70;;;;;;;23.77;37.83;102274.03;6122390;23;20009;-86
2022/10/07 09:33:14;;;;;;;10.80;2.22;;;;;;;24.04;37.51;102271.13;6122698;23;20426;-87
2022/10/07 09:35:40;;;;;;;9.50;2.42;;;;;;;24.24;36.05;102271.47;6122533;23;20016;-87
2022/10/07 09:38:08;;;;;;;8.48;2.15;;;;;;;24.59;35.30;102263.44;6122668;23;20002;-87
2022/10/07 09:43:35;;;;;;;6.97;2.10;;;;;;;23.37;38.34;102257.16;6115156;23;20038;-87
2022/10/07 09:46:00;;;;;;;9.10;1.98;;;;;;;25.21;35.65;102254.09;6120476;23;20002;-86
2022/10/07 09:48:29;;;;;;;16.38;2.13;;;;;;;25.63;34.22;102261.47;6120906;23;20010;-87
2022/10/07 09:51:14;;;;;;;9.27;2.38;;;;;;;25.82;36.21;102254.56;6122306;23;20006;-87
2022/10/07 09:53:56;;;;;;;9.18;2.03;;;;;;;25.02;36.65;102243.84;6121237;23;20009;-87
2022/10/07 09:56:34;;;;;;;7.35;2.13;;;;;;;25.58;34.12;102246.56;6122399;23;20075;-87
2022/10/07 09:59:22;;;;;;;10.80;2.25;;;;;;;25.67;34.42;102241.25;6122486;23;20040;-87
2022/10/07 10:01:58;;;;;;;11.07;2.60;;;;;;;27.05;33.95;102234.16;6121685;23;20010;-87
2022/10/07 10:04:32;;;;;;;9.88;2.50;;;;;;;27.26;31.12;102251.28;6122237;23;20037;-87
2022/10/07 10:07:04;;;;;;;10.05;2.00;;;;;;;26.86;31.83;102240.31;6122929;23;20010;-86
2022/10/07 10:09:30;;;;;;;11.85;2.60;;;;;;;27.29;29.70;102242.03;6120742;23;20491;-86
2022/10/07 10:12:02;;;;;;;7.78;1.85;;;;;;;27.10;32.67;102231.94;6122295;23;20418;-87
2022/10/07 10:14:54;;;;;;;10.60;2.22;;;;;;;26.72;32.80;102230.69;6121031;23;20010;-87
2022/10/07 10:17:22;;;;;;;10.23;2.00;;;;;;;27.47;29.94;102224.06;6122096;23;20129;-87
2022/10/07 10:19:47;;;;;;;7.28;2.70;;;;;;;28.78;28.28;102221.88;6122194;23;20013;-87
2022/10/07 10:22:28;;;;;;;7.50;2.17;;;;;;;28.76;29.91;102217.56;6121648;23;20006;-88
2022/10/07 10:27:55;;;;;;;8.02;2.05;;;;;;;27.63;28.34;102213.53;6121921;23;20462;-88
2022/10/07 10:30:23;;;;;;;8.45;2.10;;;;;;;26.61;30.59;102206.31;6121993;23;20375;-87
2022/10/07 10:32:59;;;;;;;9.05;2.25;;;;;;;26.00;30.94;102200.69;6122605;23;20005;-87
2022/10/07 10:35:31;;;;;;;8.95;2.03;;;;;;;26.28;32.01;102196.50;6120594;23;20041;-87
2022/10/07 10:38:18;;;;;;;7.70;2.15;;;;;;;27.51;30.47;102194.75;6122260;23;20012;-87
2022/10/07 10:40:53;;;;;;;7.40;1.75;;;;;;;28.81;26.92;102182.59;6121042;23;20330;-88
2022/10/07 10:43:24;;;;;;;7.70;1.92;;;;;;;29.31;27.76;102185.84;6122322;23;20006;-87
2022/10/07 10:46:07;;;;;;;8.32;2.63;;;;;;;29.32;27.30;102182.13;6121761;23;20005;-86
2022/10/07 10:49:00;;;;;;;10.25;2.10;;;;;;;28.93;27.28;102173.25;6125840;23;20086;-91
2022/10/07 10:51:44;;;;;;;4.95;2.13;;;;;;;29.04;28.39;102164.91;6122542;23;20418;-92
2022/10/07 10:54:21;;;;;;;8.52;2.28;;;;;;;28.64;27.80;102163.31;6120899;23;20009;-92
2022/10/07 10:56:57;;;;;;;7.82;1.95;;;;;;;27.68;29.38;102166.91;6122474;23;20445;-92
2022/10/07 10:59:49;;;;;;;6.93;2.38;;;;;;;26.66;30.29;102158.81;6121300;23;20029;-92
2022/10/07 11:02:25;;;;;;;8.68;2.03;;;;;;;25.97;30.92;102166.56;6125811;23;20394;-92
2022/10/07 11:05:11;;;;;;;9.23;2.08;;;;;;;25.77;31.70;102146.56;6125958;23;20473;-91
2022/10/07 11:07:56;;;;;;;9.80;2.15;;;;;;;27.15;31.63;102151.78;6124320;23;20001;-91
2022/10/07 11:10:28;;;;;;;7.32;2.00;;;;;;;27.00;30.40;102146.81;6124771;23;20009;-92
2022/10/07 11:12:57;;;;;;;9.75;2.50;;;;;;;27.05;29.49;102153.59;6125958;23;20009;-92
2022/10/07 11:15:40;;;;;;;6.22;1.77;;;;;;;26.84;29.99;102150.91;6126284;23;20482;-92
2022/10/07 11:18:20;;;;;;;8.85;2.17;;;;;;;26.38;30.82;102145.91;6124973;23;20013;-92
2022/10/07 11:20:47;;;;;;;5.28;1.83;;;;;;;26.27;31.85;102132.44;6125479;23;20006;-92
2022/10/07 11:23:30;;;;;;;7.10;1.90;;;;;;;26.84;30.94;102118.34;6125876;23;20010;-91
2022/10/07 11:26:00;;;;;;;9.20;1.92;;;;;;;27.17;29.38;102133.47;6127141;23;20064;-91
2022/10/07 11:28:28;;;;;;;8.60;1.85;;;;;;;26.53;30.20;102119.31;6125009;23;20014;-92
2022/10/07 11:31:18;;;;;;;7.07;1.70;;;;;;;25.67;31.93;102121.22;6126477;23;20797;-92
2022/10/07 11:34:10;;;;;;;8.10;1.50;;;;;;;25.77;31.50;102119.47;6126678;23;20033;-93
2022/10/07 11:37:01;;;;;;;6.68;1.80;;;;;;;26.30;32.18;102102.31;6125448;23;20032;-88
2022/10/07 11:39:28;;;;;;;6.72;1.67;;;;;;;26.10;29.88;102098.63;6123718;23;20013;-88
2022/10/07 11:42:02;;;;;;;11.25;1.85;;;;;;;25.73;32.39;102085.47;6124465;23;20045;-88
2022/10/07 11:44:35;;;;;;;6.30;1.60;;;;;;;25.76;31.32;102089.81;6125179;23;20005;-88
2022/10/07 11:47:03;;;;;;;9.55;1.90;;;;;;;25.19;32.04;102062.06;6125810;23;20006;-87
2022/10/07 11:49:40;;;;;;;9.32;1.83;;;;;;;24.66;33.45;102075.34;6125258;23;20497;-89
2022/10/07 11:52:10;;;;;;;8.40;1.70;;;;;;;24.34;33.86;102059.84;6123255;23;20084;-88
2022/10/07 11:54:45;;;;;;;14.07;2.40;;;;;;;24.41;34.43;102066.50;6125040;23;20028;-88
2022/10/07 11:57:23;;;;;;;7.05;2.15;;;;;;;24.12;35.27;102049.84;6123895;23;20518;-88